Aromas, California
Current Conditions -  °F | °C
As of 10:12 PM on Saturday 25 Oct 2014 (Local Time) from KWVI Reporting Station
Scattered Clouds Scattered Clouds  
Wind Chill: 60°   Ceiling: Unl
Heat Index: 60°   Visibility: 10mi
Dew Point: 57°   Wind: 3mph
Humidity: 90%   Direction: 350°N
Pressure: 30.14"   Gusts: NA
Location:  36.88°N, 121.64°W
Report Text: KWVI 260512Z AUTO 35003KT 10SM SCT009 16/14 A3014 RMK AO2 T01560139
Loading
Personal Weather Stations






























Interactive Weather Map
Tropical Storm Tracking
New forecast layout! Learn more

10-Day Weather Forecast

Advertisements
Track Severe Weather on mobile